createdAt,value
2023-03-20T00:01:28.501Z,12.90
2023-03-20T00:05:20.016Z,15.38
2023-03-20T00:09:07.509Z,12.95
2023-03-20T00:12:51.749Z,9.00
2023-03-20T00:16:36.618Z,12.43
2023-03-20T00:20:18.801Z,13.95
2023-03-20T00:24:00.752Z,7.60
2023-03-20T00:27:43.726Z,12.63
2023-03-20T00:31:31.343Z,10.70
2023-03-20T00:35:31.217Z,10.55
2023-03-20T00:39:13.159Z,10.90
2023-03-20T00:43:00.226Z,11.32
2023-03-20T00:46:42.097Z,9.02
2023-03-20T00:50:27.118Z,11.88
2023-03-20T00:54:14.326Z,14.57
2023-03-20T01:01:39.805Z,10.55
2023-03-20T01:05:22.537Z,7.95
2023-03-20T01:09:05.224Z,9.65
2023-03-20T01:12:47.883Z,11.30
2023-03-20T01:16:29.850Z,15.70
2023-03-20T01:20:23.590Z,18.10
2023-03-20T01:24:06.859Z,5.55
2023-03-20T01:27:54.101Z,7.15
2023-03-20T01:35:21.732Z,11.18
2023-03-20T01:39:04.486Z,9.18
2023-03-20T01:42:46.290Z,13.68
2023-03-20T01:46:31.939Z,8.20
2023-03-20T01:50:26.299Z,12.30
2023-03-20T01:54:23.045Z,9.90
2023-03-20T01:58:09.909Z,9.32
2023-03-20T02:01:51.813Z,13.32
2023-03-20T02:05:35.670Z,11.73
2023-03-20T02:09:17.773Z,11.70
2023-03-20T02:13:01.692Z,13.30
2023-03-20T02:16:43.615Z,19.10
2023-03-20T02:20:33.677Z,10.05
2023-03-20T02:24:27.429Z,10.32
2023-03-20T02:28:15.457Z,13.68
2023-03-20T02:32:08.258Z,12.63
2023-03-20T02:36:27.897Z,13.57
2023-03-20T02:40:33.503Z,10.48
2023-03-20T02:44:35.830Z,10.25
2023-03-20T02:48:29.220Z,13.48
2023-03-20T02:52:21.334Z,11.43
2023-03-20T02:56:59.677Z,13.95
2023-03-20T03:01:03.640Z,12.00
2023-03-20T03:04:58.460Z,18.58
2023-03-20T03:08:45.200Z,16.25
2023-03-20T03:12:32.094Z,15.02
2023-03-20T03:16:19.795Z,15.90
2023-03-20T03:20:07.918Z,12.18
2023-03-20T03:23:49.940Z,14.18
2023-03-20T03:27:41.555Z,12.50
2023-03-20T03:31:24.706Z,15.52
2023-03-20T03:35:07.572Z,11.20
2023-03-20T03:38:58.058Z,14.10
2023-03-20T03:42:49.495Z,14.10
2023-03-20T03:46:34.229Z,15.20
2023-03-20T03:50:23.225Z,15.02
2023-03-20T03:54:30.617Z,12.85
2023-03-20T03:58:26.746Z,6.57
2023-03-20T04:02:09.269Z,7.30
2023-03-20T04:05:53.591Z,14.10
2023-03-20T04:09:35.712Z,6.72
2023-03-20T04:13:17.528Z,13.38
2023-03-20T04:16:59.352Z,9.60
2023-03-20T04:20:41.562Z,11.23
2023-03-20T04:24:23.487Z,13.07
2023-03-20T04:28:06.113Z,15.77
2023-03-20T04:31:47.963Z,11.18
2023-03-20T04:35:29.790Z,9.25
2023-03-20T04:39:11.710Z,10.45
2023-03-20T04:42:53.550Z,8.20
2023-03-20T04:46:35.412Z,9.15
2023-03-20T04:50:17.287Z,11.73
2023-03-20T04:53:59.091Z,8.77
2023-03-20T04:57:41.198Z,12.15
2023-03-20T05:01:23.435Z,13.60
2023-03-20T05:05:05.787Z,12.95
2023-03-20T05:08:47.570Z,5.43
2023-03-20T05:12:29.475Z,7.03
2023-03-20T05:16:11.401Z,11.40
2023-03-20T05:19:53.423Z,8.43
2023-03-20T05:23:35.570Z,9.45
2023-03-20T05:27:17.690Z,7.90
2023-03-20T05:30:59.559Z,6.70
2023-03-20T05:34:41.470Z,7.63
2023-03-20T05:38:23.393Z,7.28
2023-03-20T05:42:05.385Z,8.82
2023-03-20T05:45:47.291Z,6.68
2023-03-20T05:49:29.159Z,10.68
2023-03-20T05:53:10.932Z,5.70
2023-03-20T05:56:52.773Z,8.10
2023-03-20T06:00:34.601Z,9.52
2023-03-20T06:04:16.413Z,7.13
2023-03-20T06:07:58.224Z,6.57
2023-03-20T06:11:40.251Z,9.93
2023-03-20T06:15:22.115Z,7.53
2023-03-20T06:19:04.017Z,5.93
2023-03-20T06:22:46.647Z,6.20
2023-03-20T06:26:28.449Z,8.73
2023-03-20T06:30:11.604Z,7.30
2023-03-20T06:33:53.810Z,6.35
2023-03-20T06:37:36.501Z,7.35
2023-03-20T06:41:33.383Z,8.02
2023-03-20T06:45:16.489Z,4.90
2023-03-20T06:48:58.311Z,6.45
2023-03-20T06:52:40.282Z,5.13
2023-03-20T06:56:22.168Z,5.03
2023-03-20T07:00:05.608Z,6.18
2023-03-20T07:03:47.772Z,5.60
2023-03-20T07:07:29.845Z,7.45
2023-03-20T07:11:11.664Z,8.25
2023-03-20T07:14:53.461Z,7.68
2023-03-20T07:18:35.534Z,8.35
2023-03-20T07:22:26.087Z,9.65
2023-03-20T07:26:07.898Z,4.80
2023-03-20T07:29:49.791Z,6.47
2023-03-20T07:33:31.916Z,8.43
2023-03-20T07:37:13.830Z,4.10
2023-03-20T07:40:55.629Z,5.88
2023-03-20T07:44:37.869Z,4.18
2023-03-20T07:48:19.909Z,4.65
2023-03-20T07:52:01.966Z,5.75
2023-03-20T07:55:44.310Z,6.50
2023-03-20T07:59:26.164Z,2.95
2023-03-20T08:03:08.187Z,5.72
2023-03-20T08:06:51.150Z,2.38
2023-03-20T08:10:33.373Z,1.95
2023-03-20T08:14:15.377Z,2.28
2023-03-20T08:17:58.804Z,1.33
2023-03-20T08:21:40.854Z,2.28
2023-03-20T08:25:22.798Z,2.58
2023-03-20T08:29:04.707Z,1.60
2023-03-20T08:32:46.585Z,1.98
2023-03-20T08:36:28.613Z,1.20
2023-03-20T08:40:11.724Z,2.85
2023-03-20T08:43:53.528Z,2.42
2023-03-20T08:47:35.352Z,4.05
2023-03-20T08:51:17.177Z,3.40
2023-03-20T08:54:59.048Z,4.55
2023-03-20T08:58:40.992Z,1.55
2023-03-20T09:02:23.051Z,1.88
2023-03-20T09:06:07.826Z,0.85
2023-03-20T09:09:49.640Z,1.73
2023-03-20T09:13:31.677Z,1.52
2023-03-20T09:17:13.605Z,36.08
2023-03-20T09:20:56.767Z,1.70
2023-03-20T09:24:38.603Z,2.28
2023-03-20T09:28:20.462Z,1.08
2023-03-20T09:32:02.403Z,1.58
2023-03-20T09:35:44.274Z,2.90
2023-03-20T09:39:26.111Z,1.38
2023-03-20T09:43:26.825Z,2.35
2023-03-20T09:47:21.237Z,1.33
2023-03-20T09:51:25.485Z,3.60
2023-03-20T09:55:15.079Z,2.60
2023-03-20T09:58:59.779Z,3.58
2023-03-20T10:03:03.327Z,2.83
2023-03-20T10:06:45.375Z,1.98
2023-03-20T10:10:38.505Z,2.38
2023-03-20T10:14:47.154Z,2.45
2023-03-20T10:18:34.062Z,2.90
2023-03-20T10:22:35.999Z,3.22
2023-03-20T10:26:21.710Z,4.13
2023-03-20T10:30:25.535Z,3.55
2023-03-20T10:34:21.397Z,2.60
2023-03-20T10:38:30.003Z,4.25
2023-03-20T10:42:24.518Z,3.60
2023-03-20T10:46:10.490Z,2.33
2023-03-20T10:50:00.804Z,5.82
2023-03-20T10:53:51.945Z,2.13
2023-03-20T10:57:42.260Z,3.30
2023-03-20T11:01:24.240Z,3.00
2023-03-20T11:05:24.981Z,1.58
2023-03-20T11:09:19.189Z,6.70
2023-03-20T11:13:49.239Z,1.17
2023-03-20T11:17:31.150Z,1.10
2023-03-20T11:21:32.097Z,0.95
2023-03-20T11:25:28.428Z,1.15
2023-03-20T11:29:29.215Z,1.60
2023-03-20T11:33:11.398Z,1.42
2023-03-20T11:37:11.221Z,1.83
2023-03-20T11:40:55.546Z,1.55
2023-03-20T11:44:37.403Z,1.80
2023-03-20T11:48:24.610Z,0.60
2023-03-20T11:52:15.716Z,0.80
2023-03-20T11:56:28.991Z,1.42
2023-03-20T12:00:21.456Z,0.70
2023-03-20T12:04:12.705Z,0.43
2023-03-20T12:07:58.244Z,2.15
2023-03-20T12:11:50.764Z,0.82
2023-03-20T12:15:37.060Z,2.60
2023-03-20T12:19:23.876Z,0.68
2023-03-20T12:23:37.286Z,0.65
2023-03-20T12:27:28.244Z,0.80
2023-03-20T12:31:26.265Z,0.40
2023-03-20T12:35:20.765Z,0.25
2023-03-20T12:39:05.838Z,0.45
2023-03-20T12:42:47.636Z,0.90
2023-03-20T12:46:46.467Z,0.22
2023-03-20T12:50:43.029Z,1.08
2023-03-20T12:54:43.911Z,0.63
2023-03-20T12:58:30.595Z,1.75
2023-03-20T13:02:44.064Z,0.47
2023-03-20T13:06:31.715Z,0.40
2023-03-20T13:10:23.770Z,0.50
2023-03-20T13:14:15.732Z,1.13
2023-03-20T13:18:12.522Z,0.80
2023-03-20T13:26:05.364Z,0.40
2023-03-20T13:29:58.807Z,0.20
2023-03-20T13:33:50.599Z,2.33
2023-03-20T13:37:35.845Z,0.80
2023-03-20T13:41:17.741Z,0.95
2023-03-20T13:45:07.222Z,2.08
2023-03-20T13:48:50.486Z,0.35
2023-03-20T13:52:52.175Z,0.82
2023-03-20T13:57:20.807Z,0.38
2023-03-20T14:01:28.752Z,1.10
2023-03-20T14:05:22.378Z,0.63
2023-03-20T14:09:24.161Z,0.95
2023-03-20T14:13:12.720Z,0.35
2023-03-20T14:17:28.377Z,2.70
2023-03-20T14:21:13.864Z,0.20
2023-03-20T14:25:04.195Z,0.25
2023-03-20T14:29:01.824Z,2.25
2023-03-20T14:33:06.178Z,1.42
2023-03-20T14:37:03.276Z,0.28
2023-03-20T14:40:54.296Z,0.50
2023-03-20T14:44:50.359Z,0.65
2023-03-20T14:48:42.948Z,1.07
2023-03-20T14:52:33.171Z,2.17
2023-03-20T14:56:15.816Z,1.27
2023-03-20T14:59:57.800Z,2.95
2023-03-20T15:03:41.206Z,4.28
2023-03-20T15:07:26.592Z,3.65
2023-03-20T15:11:10.444Z,5.65
2023-03-20T15:15:05.858Z,7.20
2023-03-20T15:18:51.780Z,3.67
2023-03-20T15:22:33.952Z,5.00
2023-03-20T15:26:18.519Z,8.15
2023-03-20T15:30:02.378Z,9.88
2023-03-20T15:33:45.022Z,5.53
2023-03-20T15:37:27.342Z,9.85
2023-03-20T15:41:31.770Z,9.70
2023-03-20T15:45:31.793Z,8.45
2023-03-20T15:49:18.783Z,8.95
2023-03-20T15:53:01.481Z,10.38
2023-03-20T15:56:45.833Z,9.68
2023-03-20T16:00:39.883Z,10.85
2023-03-20T16:04:22.386Z,9.85
2023-03-20T16:08:27.389Z,12.90
2023-03-20T16:12:16.298Z,13.73
2023-03-20T16:15:58.570Z,7.57
2023-03-20T16:19:40.678Z,15.18
2023-03-20T16:23:33.941Z,5.18
2023-03-20T16:27:25.819Z,6.28
2023-03-20T16:31:10.913Z,6.13
2023-03-20T16:34:56.882Z,8.85
2023-03-20T16:38:40.335Z,9.68
2023-03-20T16:42:24.002Z,8.48
2023-03-20T16:46:07.152Z,7.03
2023-03-20T16:49:54.949Z,6.18
2023-03-20T16:53:41.541Z,7.78
2023-03-20T16:57:23.629Z,5.70
2023-03-20T17:01:08.704Z,4.20
2023-03-20T17:04:55.860Z,6.07
2023-03-20T17:08:42.124Z,4.78
2023-03-20T17:12:26.348Z,2.60
2023-03-20T17:16:17.830Z,4.80
2023-03-20T17:20:00.899Z,6.78
2023-03-20T17:23:42.715Z,5.82
2023-03-20T17:27:24.836Z,5.63
2023-03-20T17:31:07.067Z,6.10
2023-03-20T17:34:48.914Z,6.35
2023-03-20T17:38:31.557Z,8.23
2023-03-20T17:42:18.851Z,9.40
2023-03-20T17:46:00.818Z,9.80
2023-03-20T17:49:43.655Z,7.07
2023-03-20T17:53:29.016Z,9.85
2023-03-20T17:57:24.404Z,10.70
2023-03-20T18:01:09.763Z,10.05
2023-03-20T18:04:51.772Z,8.80
2023-03-20T18:08:33.651Z,11.25
2023-03-20T18:12:18.486Z,12.65
2023-03-20T18:16:00.622Z,6.60
2023-03-20T18:19:43.637Z,14.20
2023-03-20T18:23:25.439Z,15.68
2023-03-20T18:27:07.857Z,12.18
2023-03-20T18:30:50.676Z,6.75
2023-03-20T18:34:34.435Z,12.98
2023-03-20T18:38:16.394Z,7.90
2023-03-20T18:41:58.214Z,13.90
2023-03-20T18:45:40.053Z,11.73
2023-03-20T18:49:22.365Z,10.05
2023-03-20T18:53:06.928Z,9.80
2023-03-20T18:56:49.903Z,13.10
2023-03-20T19:00:39.986Z,7.55
2023-03-20T19:04:23.480Z,8.95
2023-03-20T19:08:06.668Z,7.57
2023-03-20T19:11:49.270Z,12.23
2023-03-20T19:15:36.041Z,6.30
2023-03-20T19:19:17.880Z,10.25
2023-03-20T19:23:00.804Z,8.18
2023-03-20T19:26:42.748Z,8.48
2023-03-20T19:30:38.414Z,10.63
2023-03-20T19:35:00.875Z,6.40
2023-03-20T19:38:22.812Z,6.65
2023-03-20T19:42:22.028Z,7.45
2023-03-20T19:46:28.515Z,6.82
2023-03-20T19:50:34.321Z,10.05
2023-03-20T19:54:16.808Z,6.45
2023-03-20T19:58:00.720Z,9.55
2023-03-20T20:01:42.690Z,10.75
2023-03-20T20:05:26.645Z,8.48
2023-03-20T20:09:08.570Z,6.47
2023-03-20T20:12:51.231Z,6.40
2023-03-20T20:16:33.326Z,4.28
2023-03-20T20:20:20.509Z,7.90
2023-03-20T20:24:07.598Z,3.55
2023-03-20T20:27:49.674Z,9.00
2023-03-20T20:31:31.898Z,5.72
2023-03-20T20:35:40.699Z,4.78
2023-03-20T20:39:16.585Z,3.55
2023-03-20T20:43:01.834Z,7.63
2023-03-20T20:46:44.170Z,2.78
2023-03-20T20:50:28.699Z,6.15
2023-03-20T20:54:10.501Z,9.57
2023-03-20T20:57:55.612Z,5.95
2023-03-20T21:01:37.506Z,3.22
2023-03-20T21:05:21.331Z,9.13
2023-03-20T21:09:03.293Z,7.22
2023-03-20T21:12:58.678Z,4.30
2023-03-20T21:16:41.607Z,9.13
2023-03-20T21:20:23.918Z,4.00
2023-03-20T21:24:06.950Z,8.23
2023-03-20T21:27:48.801Z,9.55
2023-03-20T21:31:31.569Z,6.88
2023-03-20T21:35:13.949Z,6.20
2023-03-20T21:39:07.717Z,4.85
2023-03-20T21:42:50.679Z,7.82
2023-03-20T21:51:09.697Z,6.90
2023-03-20T21:55:12.937Z,6.22
2023-03-20T22:02:43.550Z,7.22
2023-03-20T22:11:24.930Z,5.15
2023-03-20T22:23:32.331Z,5.63
2023-03-20T22:35:35.504Z,4.95
2023-03-20T22:43:01.596Z,7.33
2023-03-20T22:46:49.727Z,3.85
2023-03-20T22:50:31.836Z,8.18
2023-03-20T22:54:13.672Z,7.72
2023-03-20T22:58:06.342Z,8.40
2023-03-20T23:01:48.633Z,7.10
2023-03-20T23:05:30.915Z,7.35
2023-03-20T23:09:15.742Z,5.32
2023-03-20T23:12:58.084Z,6.57
2023-03-20T23:16:40.209Z,4.72
2023-03-20T23:20:22.095Z,6.50
2023-03-20T23:24:04.377Z,3.85
2023-03-20T23:27:46.184Z,5.15
2023-03-20T23:31:28.131Z,5.53
2023-03-20T23:35:10.409Z,4.97
2023-03-20T23:38:52.454Z,6.53
2023-03-20T23:42:34.411Z,5.90
2023-03-20T23:46:16.372Z,5.15
2023-03-20T23:49:58.212Z,4.03
2023-03-20T23:53:40.289Z,6.38
2023-03-20T23:57:22.110Z,7.03
